Time;durP1;ratioP1;P1;durP2;ratioP2;P2;SDS_P1;SDS_P2;PMS_P1;PMS_P2;Temp;Humidity;BMP_temperature;BMP_pressure;BME280_temperature;BME280_humidity;BME280_pressure;Samples;Min_cycle;Max_cycle;Signal;HPM_P1;HPM_P2
2023/09/09 00:00:39;;;;;;;18.00;11.10;;;;;;;16.29;95.79;100432.23;109485;1252;73731;-61
2023/09/09 00:03:34;;;;;;;15.80;10.70;;;;;;;16.27;95.98;100434.47;109548;1254;67982;-60
2023/09/09 00:06:22;;;;;;;17.00;10.50;;;;;;;16.24;96.03;100433.50;109481;1254;71458;-60
2023/09/09 00:09:08;;;;;;;18.70;10.90;;;;;;;16.21;96.01;100435.37;109474;1254;58597;-60
2023/09/09 00:11:55;;;;;;;18.40;10.70;;;;;;;16.19;96.23;100435.92;109471;1258;60030;-59
2023/09/09 00:14:41;;;;;;;15.40;9.70;;;;;;;16.17;96.25;100436.06;109637;1252;71617;-60
2023/09/09 00:17:27;;;;;;;16.10;10.60;;;;;;;16.16;96.16;100436.89;109615;1252;67047;-61
2023/09/09 00:20:14;;;;;;;15.70;9.40;;;;;;;16.14;96.33;100436.05;109604;1254;70696;-61
2023/09/09 00:23:08;;;;;;;16.70;10.10;;;;;;;16.13;96.18;100437.35;109431;1253;60410;-61
2023/09/09 00:25:55;;;;;;;15.10;9.70;;;;;;;16.14;96.29;100438.55;109500;1252;60070;-60
2023/09/09 00:28:41;;;;;;;16.20;10.10;;;;;;;16.11;95.99;100438.06;109605;1252;72884;-65
2023/09/09 00:31:27;;;;;;;17.80;9.90;;;;;;;16.09;96.16;100435.75;109475;1253;67105;-61
2023/09/09 00:34:14;;;;;;;18.30;10.10;;;;;;;16.07;96.15;100440.50;109482;1252;73673;-61
2023/09/09 00:37:00;;;;;;;15.80;9.20;;;;;;;15.99;95.80;100434.73;109566;1253;58248;-60
2023/09/09 00:39:47;;;;;;;15.30;10.10;;;;;;;15.98;96.26;100439.17;109509;1252;60089;-60
2023/09/09 00:42:33;;;;;;;15.40;9.40;;;;;;;15.93;96.35;100438.60;109349;1254;73972;-60
2023/09/09 00:45:19;;;;;;;15.40;9.10;;;;;;;15.88;96.46;100441.52;109587;1254;67260;-60
2023/09/09 00:48:07;;;;;;;16.20;9.50;;;;;;;15.85;96.73;100439.65;109593;1253;73705;-60
2023/09/09 00:50:53;;;;;;;15.00;8.40;;;;;;;15.84;96.82;100434.05;109469;1252;60538;-60
2023/09/09 00:53:40;;;;;;;14.10;9.30;;;;;;;15.82;96.70;100435.60;109513;1254;58717;-61
2023/09/09 00:56:27;;;;;;;14.30;9.40;;;;;;;15.80;96.58;100436.76;109470;1252;72808;-60
2023/09/09 00:59:13;;;;;;;13.80;8.50;;;;;;;15.76;96.92;100440.46;109407;1254;69270;-60
2023/09/09 01:02:00;;;;;;;13.60;8.40;;;;;;;15.74;97.08;100442.09;109391;1252;72140;-61
2023/09/09 01:04:49;;;;;;;16.50;8.30;;;;;;;15.74;96.79;100439.27;109582;1254;58498;-61
2023/09/09 01:07:48;;;;;;;14.70;8.50;;;;;;;15.71;96.94;100436.26;109573;1254;60018;-60
2023/09/09 01:10:35;;;;;;;13.80;9.10;;;;;;;15.71;96.75;100446.01;109599;1254;73030;-60
2023/09/09 01:13:22;;;;;;;15.40;10.30;;;;;;;15.66;96.92;100449.63;109636;1252;68202;-60
2023/09/09 01:16:08;;;;;;;15.20;9.80;;;;;;;15.61;97.19;100448.08;109446;1253;73738;-60
2023/09/09 01:18:55;;;;;;;14.80;9.70;;;;;;;15.58;97.26;100451.95;109430;1254;58280;-59
2023/09/09 01:21:43;;;;;;;16.00;10.60;;;;;;;15.56;97.29;100449.70;109468;1254;59141;-60
2023/09/09 01:24:30;;;;;;;16.20;10.50;;;;;;;15.53;97.91;100445.97;109552;1253;73054;-60
2023/09/09 01:27:17;;;;;;;14.90;9.90;;;;;;;15.51;98.14;100447.23;109607;1252;69136;-60
2023/09/09 01:30:05;;;;;;;15.70;9.60;;;;;;;15.47;98.18;100444.77;109589;1253;72541;-59
2023/09/09 01:32:51;;;;;;;15.50;9.50;;;;;;;15.44;98.55;100452.39;109560;1254;59265;-60
2023/09/09 01:35:38;;;;;;;14.70;9.70;;;;;;;15.42;98.91;100452.35;109343;1254;61375;-59
2023/09/09 01:38:24;;;;;;;15.70;9.60;;;;;;;15.41;99.08;100455.54;109580;1254;73074;-60
2023/09/09 01:41:11;;;;;;;15.60;10.20;;;;;;;15.40;99.34;100451.79;109653;1253;67792;-59
2023/09/09 01:43:57;;;;;;;14.40;9.20;;;;;;;15.41;99.45;100452.63;109523;1254;71562;-60
2023/09/09 01:46:44;;;;;;;14.60;9.50;;;;;;;15.42;99.34;100450.70;109520;1254;59600;-61
2023/09/09 01:49:30;;;;;;;16.50;9.40;;;;;;;15.41;98.88;100447.10;109580;1254;61185;-59
2023/09/09 01:52:16;;;;;;;14.20;9.40;;;;;;;15.41;99.26;100451.58;109545;1254;73132;-58
2023/09/09 01:55:02;;;;;;;16.20;9.80;;;;;;;15.40;99.29;100447.86;109603;1254;68886;-60
2023/09/09 01:57:49;;;;;;;15.00;9.80;;;;;;;15.40;99.66;100451.67;109595;1253;73407;-61
2023/09/09 02:00:35;;;;;;;15.00;9.40;;;;;;;15.39;99.70;100448.30;109512;1253;57947;-61
2023/09/09 02:03:21;;;;;;;14.70;9.30;;;;;;;15.39;99.87;100447.58;109598;1253;58730;-60
2023/09/09 02:06:08;;;;;;;14.00;9.00;;;;;;;15.41;99.86;100446.54;109592;1254;72873;-61
2023/09/09 02:08:54;;;;;;;14.50;9.00;;;;;;;15.42;100.00;100442.66;109572;1253;67984;-60
2023/09/09 02:11:41;;;;;;;13.10;8.80;;;;;;;15.43;100.00;100439.93;109579;1253;73946;-61
2023/09/09 02:14:27;;;;;;;17.40;8.60;;;;;;;15.43;99.82;100437.96;109546;1253;58281;-61
2023/09/09 02:17:14;;;;;;;15.30;9.00;;;;;;;15.44;99.72;100435.76;109457;1254;60044;-62
2023/09/09 02:20:00;;;;;;;15.30;8.70;;;;;;;15.39;99.62;100427.23;109584;1254;74089;-60
2023/09/09 02:22:46;;;;;;;13.50;8.60;;;;;;;15.46;99.91;100433.89;109612;1253;65622;-61
2023/09/09 02:25:32;;;;;;;15.50;8.40;;;;;;;15.49;99.99;100438.83;109582;1253;73649;-60
2023/09/09 02:28:19;;;;;;;15.50;8.40;;;;;;;15.52;100.00;100437.30;109556;1256;60632;-61
2023/09/09 02:31:05;;;;;;;14.90;8.10;;;;;;;15.56;99.97;100433.77;109527;1256;59976;-60
2023/09/09 02:33:51;;;;;;;12.20;8.00;;;;;;;15.60;100.00;100426.77;109566;1254;72747;-60
2023/09/09 02:36:45;;;;;;;14.00;8.60;;;;;;;15.65;100.00;100427.71;109487;1254;67798;-60
2023/09/09 02:39:31;;;;;;;13.90;8.30;;;;;;;15.70;99.96;100428.56;109568;1253;71320;-60
2023/09/09 02:42:23;;;;;;;13.50;8.10;;;;;;;15.73;99.86;100429.63;109467;1253;58521;-60
2023/09/09 02:45:10;;;;;;;14.20;8.40;;;;;;;15.77;99.50;100428.77;109593;1253;61496;-62
2023/09/09 02:47:56;;;;;;;14.30;8.10;;;;;;;15.79;99.55;100430.35;109547;1254;74014;-60
2023/09/09 02:50:43;;;;;;;12.90;8.00;;;;;;;15.80;99.24;100430.09;109570;1254;67874;-60
2023/09/09 02:53:30;;;;;;;13.00;8.40;;;;;;;15.82;99.30;100432.04;109566;1253;72724;-61
2023/09/09 02:56:16;;;;;;;13.00;8.00;;;;;;;15.83;98.87;100425.65;109417;1255;58352;-60
2023/09/09 02:59:02;;;;;;;12.60;7.40;;;;;;;15.85;98.87;100424.27;109532;1253;58725;-60
2023/09/09 03:01:48;;;;;;;12.30;8.20;;;;;;;15.85;98.72;100425.73;109367;1254;74079;-60
2023/09/09 03:04:34;;;;;;;12.00;8.00;;;;;;;15.85;98.89;100429.70;109534;1252;67871;-60
2023/09/09 03:07:20;;;;;;;12.60;8.30;;;;;;;15.87;98.83;100430.21;109472;1256;72696;-61
2023/09/09 03:10:07;;;;;;;13.40;7.30;;;;;;;15.89;98.78;100428.38;109387;1254;59619;-61
2023/09/09 03:12:56;;;;;;;12.40;7.70;;;;;;;15.89;98.57;100428.52;109467;1253;60272;-63
2023/09/09 03:15:43;;;;;;;11.90;7.70;;;;;;;15.88;98.39;100427.00;109420;1252;73141;-61
2023/09/09 03:18:29;;;;;;;12.90;7.70;;;;;;;15.89;98.25;100428.58;109440;1253;68876;-61
2023/09/09 03:21:16;;;;;;;13.00;7.60;;;;;;;15.90;98.36;100428.46;109558;1252;72543;-60
2023/09/09 03:24:03;;;;;;;11.90;8.30;;;;;;;15.90;98.36;100429.70;109510;1252;58779;-63
2023/09/09 03:26:50;;;;;;;13.30;8.00;;;;;;;15.89;98.25;100429.75;109538;1253;60017;-61
2023/09/09 03:29:36;;;;;;;13.60;8.10;;;;;;;15.87;98.40;100426.77;109366;1254;71486;-62
2023/09/09 03:32:23;;;;;;;13.10;8.80;;;;;;;15.85;98.52;100423.69;109483;1253;67866;-61
2023/09/09 03:35:09;;;;;;;12.90;7.70;;;;;;;15.85;98.65;100421.57;109515;1254;71165;-60
2023/09/09 03:37:56;;;;;;;12.90;7.60;;;;;;;15.85;98.92;100425.67;109470;1254;59479;-60
2023/09/09 03:40:42;;;;;;;12.20;7.90;;;;;;;15.87;98.81;100425.84;109536;1253;59351;-60
2023/09/09 03:43:29;;;;;;;13.00;8.20;;;;;;;15.90;98.67;100429.34;109311;1255;72268;-61
2023/09/09 03:46:15;;;;;;;15.20;8.20;;;;;;;15.92;98.67;100430.80;109388;1253;67744;-61
2023/09/09 03:49:02;;;;;;;12.00;7.60;;;;;;;15.95;98.88;100433.52;109387;1253;71617;-62
2023/09/09 03:51:48;;;;;;;11.30;7.10;;;;;;;15.99;98.56;100436.89;109450;1253;58603;-61
2023/09/09 03:54:35;;;;;;;14.90;8.30;;;;;;;16.03;98.49;100437.46;109346;1253;60059;-63
2023/09/09 03:57:21;;;;;;;12.90;7.30;;;;;;;16.06;98.26;100433.39;109439;1254;74083;-64
2023/09/09 04:00:09;;;;;;;13.40;8.00;;;;;;;16.08;97.83;100432.14;109543;1252;65895;-62
2023/09/09 04:02:58;;;;;;;12.60;7.50;;;;;;;16.09;97.65;100428.69;109470;1252;73921;-61
2023/09/09 04:05:47;;;;;;;12.70;8.20;;;;;;;16.10;97.82;100422.64;109418;1253;59449;-61
2023/09/09 04:08:35;;;;;;;13.30;8.00;;;;;;;16.12;97.71;100421.59;109447;1253;61073;-60
2023/09/09 04:11:24;;;;;;;12.00;7.50;;;;;;;16.13;97.63;100422.69;109356;1253;71678;-64
2023/09/09 04:14:10;;;;;;;13.10;8.30;;;;;;;16.15;97.63;100422.36;109465;1253;67884;-62
2023/09/09 04:16:57;;;;;;;12.70;7.80;;;;;;;16.18;97.38;100425.09;109494;1252;71447;-62
2023/09/09 04:19:45;;;;;;;13.20;8.30;;;;;;;16.19;97.34;100420.48;109472;1253;59618;-61
2023/09/09 04:22:32;;;;;;;12.60;7.90;;;;;;;16.23;97.05;100417.69;109412;1253;61078;-61
2023/09/09 04:25:18;;;;;;;14.30;8.80;;;;;;;16.25;96.88;100412.63;109405;1253;73632;-61
2023/09/09 04:28:05;;;;;;;12.80;8.10;;;;;;;16.27;96.25;100408.08;109462;1254;66723;-63
2023/09/09 04:30:52;;;;;;;12.80;8.20;;;;;;;16.31;95.73;100406.82;109392;1253;70306;-60
2023/09/09 04:33:38;;;;;;;13.10;7.60;;;;;;;16.34;95.14;100407.44;109424;1254;58869;-61
2023/09/09 04:36:26;;;;;;;11.70;7.90;;;;;;;16.37;94.57;100407.72;109430;1253;61386;-61
2023/09/09 04:39:15;;;;;;;12.60;7.80;;;;;;;16.40;94.08;100411.75;109007;1254;73074;-61
2023/09/09 04:42:03;;;;;;;12.40;7.20;;;;;;;16.43;93.59;100415.89;109494;1253;66939;-64
2023/09/09 04:44:49;;;;;;;11.20;6.50;;;;;;;16.46;93.32;100416.70;109491;1253;70383;-62
2023/09/09 04:47:36;;;;;;;11.20;7.30;;;;;;;16.50;93.05;100415.41;109450;1253;58112;-60
2023/09/09 04:50:23;;;;;;;11.00;7.30;;;;;;;16.55;92.85;100416.14;109492;1252;59217;-62
2023/09/09 04:53:09;;;;;;;12.80;7.50;;;;;;;16.61;92.81;100417.95;109277;1253;73871;-61
2023/09/09 04:55:57;;;;;;;12.70;7.50;;;;;;;16.66;92.62;100418.29;109352;1253;66946;-62
2023/09/09 04:58:43;;;;;;;12.90;7.50;;;;;;;16.72;92.11;100419.52;109417;1253;73038;-64
2023/09/09 05:01:30;;;;;;;12.50;7.20;;;;;;;16.80;91.75;100419.14;109437;1254;57798;-63
2023/09/09 05:04:16;;;;;;;11.10;7.20;;;;;;;16.87;91.20;100417.37;109433;1253;60037;-62
2023/09/09 05:07:03;;;;;;;13.50;7.80;;;;;;;16.95;90.86;100418.25;109364;1253;72878;-62
2023/09/09 05:09:49;;;;;;;14.80;8.50;;;;;;;17.02;90.76;100418.02;109404;1254;68865;-63
2023/09/09 05:12:38;;;;;;;11.30;6.80;;;;;;;17.11;90.16;100419.86;109464;1253;72705;-62
2023/09/09 05:15:26;;;;;;;11.40;6.70;;;;;;;17.18;89.18;100416.59;109272;1253;59329;-64
2023/09/09 05:18:12;;;;;;;11.70;7.60;;;;;;;17.26;88.89;100418.38;109544;1254;60239;-62
2023/09/09 05:20:58;;;;;;;13.30;8.20;;;;;;;17.34;88.67;100420.46;109472;1253;73059;-62
2023/09/09 05:23:45;;;;;;;12.20;7.30;;;;;;;17.43;88.40;100417.95;109333;1254;65570;-63
2023/09/09 05:26:32;;;;;;;11.80;6.90;;;;;;;17.51;87.50;100413.14;109401;1252;72731;-62
2023/09/09 05:29:18;;;;;;;12.10;7.00;;;;;;;17.59;86.31;100409.64;109334;1253;58356;-63
2023/09/09 05:32:08;;;;;;;12.20;7.30;;;;;;;17.69;85.26;100413.52;109337;1253;60063;-63
2023/09/09 05:34:54;;;;;;;10.90;6.50;;;;;;;17.78;84.36;100411.02;109435;1253;73056;-62
2023/09/09 05:37:41;;;;;;;10.70;6.70;;;;;;;17.83;83.67;100412.36;109447;1253;67765;-64
2023/09/09 05:40:28;;;;;;;11.00;6.70;;;;;;;17.89;83.31;100407.73;109419;1253;72544;-61
2023/09/09 05:43:14;;;;;;;10.90;6.50;;;;;;;17.97;82.50;100415.48;109427;1253;59251;-62
2023/09/09 05:46:01;;;;;;;10.40;5.50;;;;;;;18.06;81.84;100415.43;109520;1253;60136;-66
2023/09/09 05:48:48;;;;;;;11.50;6.70;;;;;;;18.17;80.86;100411.28;109364;1254;73197;-63
2023/09/09 05:51:34;;;;;;;10.20;6.10;;;;;;;18.29;80.05;100406.13;109495;1253;68696;-65
2023/09/09 05:54:21;;;;;;;9.80;5.20;;;;;;;18.37;78.44;100410.94;109395;1253;72966;-63
2023/09/09 05:57:08;;;;;;;9.40;5.00;;;;;;;18.44;76.92;100406.02;109456;1254;57460;-62
2023/09/09 05:59:55;;;;;;;9.80;4.70;;;;;;;18.51;76.36;100402.20;109509;1253;58573;-64
2023/09/09 06:02:41;;;;;;;9.10;5.10;;;;;;;18.59;75.12;100404.05;109336;1253;71601;-63
2023/09/09 06:05:29;;;;;;;10.70;4.60;;;;;;;18.63;73.22;100401.84;109432;1253;66978;-65
2023/09/09 06:08:15;;;;;;;8.30;4.30;;;;;;;18.69;72.36;100404.59;109470;1253;71901;-65
2023/09/09 06:11:01;;;;;;;8.40;4.90;;;;;;;18.76;71.62;100405.21;109485;1254;58194;-62
2023/09/09 06:13:48;;;;;;;8.40;4.50;;;;;;;18.82;70.12;100412.38;109416;1252;58928;-62
2023/09/09 06:16:37;;;;;;;9.60;4.40;;;;;;;18.87;69.30;100410.51;109533;1253;71521;-66
2023/09/09 06:19:24;;;;;;;9.10;4.80;;;;;;;18.97;68.24;100413.52;109536;1252;67734;-63
2023/09/09 06:22:11;;;;;;;8.50;3.90;;;;;;;19.11;67.36;100405.11;109441;1253;72319;-63
2023/09/09 06:24:57;;;;;;;10.30;4.00;;;;;;;19.42;65.83;100412.70;109289;1253;58974;-64
2023/09/09 06:27:44;;;;;;;8.20;4.10;;;;;;;20.00;64.46;100416.48;109386;1253;61133;-63
2023/09/09 06:30:31;;;;;;;7.50;3.70;;;;;;;20.62;61.84;100419.97;109384;1252;72866;-64
2023/09/09 06:33:18;;;;;;;7.90;3.80;;;;;;;21.15;60.68;100425.88;109330;1254;67946;-65
2023/09/09 06:36:07;;;;;;;7.50;3.50;;;;;;;21.58;58.97;100427.40;109356;1252;72514;-63
2023/09/09 06:38:55;;;;;;;8.20;3.40;;;;;;;21.90;58.58;100430.84;109366;1253;59032;-63
2023/09/09 06:41:41;;;;;;;7.10;3.30;;;;;;;22.06;57.56;100430.84;109239;1252;60074;-65
2023/09/09 06:44:28;;;;;;;6.90;3.40;;;;;;;22.12;56.16;100432.67;109371;1253;71607;-67
2023/09/09 06:47:14;;;;;;;8.00;3.50;;;;;;;22.36;54.83;100430.83;109253;1254;66486;-62
2023/09/09 06:50:01;;;;;;;7.00;3.10;;;;;;;22.64;54.53;100432.11;109469;1252;71339;-66
2023/09/09 06:52:47;;;;;;;8.50;3.60;;;;;;;23.34;52.20;100425.58;109461;1252;57806;-64
2023/09/09 06:55:33;;;;;;;7.60;3.00;;;;;;;24.46;50.22;100421.69;109257;1252;60255;-65
2023/09/09 06:58:19;;;;;;;7.40;2.90;;;;;;;25.68;46.83;100414.13;109427;1253;73033;-63
2023/09/09 07:01:06;;;;;;;8.90;2.90;;;;;;;26.91;43.28;100415.86;109529;1253;66701;-62
2023/09/09 07:03:52;;;;;;;7.70;2.60;;;;;;;27.86;40.23;100414.60;109539;1253;72505;-64
2023/09/09 07:06:40;;;;;;;9.10;2.90;;;;;;;28.53;38.57;100408.67;109524;1252;59033;-65
2023/09/09 07:09:46;;;;;;;9.20;2.80;;;;;;;28.77;37.01;100412.61;109439;1253;59022;-63
2023/09/09 07:12:32;;;;;;;6.70;2.70;;;;;;;28.97;36.10;100412.20;109523;1252;73927;-64
2023/09/09 07:15:19;;;;;;;8.00;2.80;;;;;;;29.15;36.34;100413.56;109501;1252;66805;-62
2023/09/09 07:18:05;;;;;;;7.30;2.80;;;;;;;29.49;34.85;100420.36;109479;1252;73423;-63
2023/09/09 07:20:57;;;;;;;9.00;3.00;;;;;;;29.52;34.92;100425.96;109359;1252;58547;-62
2023/09/09 07:23:43;;;;;;;7.40;2.80;;;;;;;29.80;35.68;100428.19;109496;1252;60100;-64
2023/09/09 07:26:29;;;;;;;7.80;3.00;;;;;;;30.51;35.48;100429.32;109548;1252;73979;-63
2023/09/09 07:29:16;;;;;;;7.30;3.40;;;;;;;31.07;34.28;100432.20;109538;1252;68369;-63
2023/09/09 07:32:02;;;;;;;7.80;3.10;;;;;;;31.46;34.08;100434.54;109385;1253;71335;-61
2023/09/09 07:34:50;;;;;;;7.40;3.10;;;;;;;31.74;33.99;100431.95;109317;1253;59286;-61
2023/09/09 07:37:36;;;;;;;10.60;3.50;;;;;;;31.96;33.46;100427.32;109361;1253;61658;-62
2023/09/09 07:40:23;;;;;;;10.20;3.20;;;;;;;32.21;33.12;100423.12;109610;1252;73237;-63
2023/09/09 07:43:09;;;;;;;12.80;3.30;;;;;;;32.44;32.13;100420.39;109419;1252;67722;-63
2023/09/09 07:45:55;;;;;;;9.50;3.00;;;;;;;32.84;32.07;100419.94;109389;1252;71121;-65
2023/09/09 07:48:41;;;;;;;8.70;3.10;;;;;;;32.94;31.45;100418.93;109377;1253;58001;-62
2023/09/09 07:51:28;;;;;;;8.70;2.90;;;;;;;32.66;31.40;100417.89;109556;1252;59982;-63
2023/09/09 07:54:15;;;;;;;9.90;3.50;;;;;;;32.75;31.59;100418.68;109378;1253;73956;-63
2023/09/09 07:57:02;;;;;;;8.10;3.00;;;;;;;32.91;31.32;100419.14;109509;1252;67977;-63
2023/09/09 07:59:48;;;;;;;9.30;2.90;;;;;;;32.92;31.18;100420.73;109456;1252;72689;-62
2023/09/09 08:02:35;;;;;;;11.30;2.90;;;;;;;32.99;31.28;100422.73;109517;1252;57754;-63
2023/09/09 08:05:21;;;;;;;11.80;3.10;;;;;;;32.51;31.82;100427.31;109497;1252;60438;-63
2023/09/09 08:08:08;;;;;;;12.10;3.30;;;;;;;32.40;32.06;100426.77;109404;1252;72927;-62
2023/09/09 08:10:54;;;;;;;10.20;3.90;;;;;;;32.52;32.05;100425.23;109482;1252;66476;-63
2023/09/09 08:13:40;;;;;;;11.20;3.50;;;;;;;33.09;31.39;100427.47;109516;1252;72780;-62
2023/09/09 08:16:26;;;;;;;12.20;3.30;;;;;;;33.80;30.35;100425.71;109484;1252;59002;-62
2023/09/09 08:19:12;;;;;;;12.40;3.10;;;;;;;34.51;29.51;100419.33;109293;1253;60100;-63
2023/09/09 08:21:59;;;;;;;9.00;2.80;;;;;;;35.07;28.60;100420.54;109529;1252;71845;-61
2023/09/09 08:24:45;;;;;;;10.70;3.10;;;;;;;35.62;28.37;100420.29;109451;1253;67894;-62
2023/09/09 08:27:32;;;;;;;9.00;3.00;;;;;;;36.24;27.16;100418.63;109403;1253;71167;-63
2023/09/09 08:30:18;;;;;;;11.10;3.00;;;;;;;36.72;26.62;100415.83;109449;1252;57562;-62
2023/09/09 08:33:04;;;;;;;7.00;2.60;;;;;;;37.21;26.29;100417.06;109458;1252;60146;-62
2023/09/09 08:35:51;;;;;;;9.80;3.00;;;;;;;37.76;25.48;100416.39;109492;1252;73981;-63
2023/09/09 08:38:38;;;;;;;8.80;2.70;;;;;;;37.92;24.52;100416.67;109491;1252;67780;-63
2023/09/09 08:42:09;;;;;;;9.30;3.10;;;;;;;37.93;25.20;100411.23;109361;1253;71167;-62
2023/09/09 08:45:29;;;;;;;14.10;3.20;;;;;;;37.70;25.70;100408.71;109458;1252;57838;-62
2023/09/09 08:48:20;;;;;;;8.10;3.00;;;;;;;36.96;25.43;100411.23;109513;1252;60143;-62
2023/09/09 08:51:11;;;;;;;8.50;3.20;;;;;;;36.16;26.36;100413.88;109373;1252;73033;-63
2023/09/09 08:53:57;;;;;;;12.70;3.20;;;;;;;36.01;26.81;100415.70;109538;1252;68348;-63
2023/09/09 08:56:44;;;;;;;8.30;3.30;;;;;;;35.74;27.38;100411.81;109447;1252;73662;-64
2023/09/09 08:59:32;;;;;;;8.20;3.70;;;;;;;35.14;28.06;100410.54;109378;1253;57315;-61
2023/09/09 09:02:18;;;;;;;9.10;3.70;;;;;;;34.91;28.62;100404.70;109270;1252;60074;-62
2023/09/09 09:05:07;;;;;;;9.70;3.40;;;;;;;35.12;28.55;100409.33;109464;1252;73123;-61
2023/09/09 09:07:53;;;;;;;11.10;3.90;;;;;;;35.32;27.99;100414.00;109377;1253;66227;-62
2023/09/09 09:10:40;;;;;;;8.60;3.50;;;;;;;35.25;28.26;100408.99;109456;1252;72938;-61
2023/09/09 09:13:30;;;;;;;11.00;3.80;;;;;;;34.97;28.76;100403.55;109465;1252;57848;-63
2023/09/09 09:16:18;;;;;;;10.50;3.60;;;;;;;34.83;29.48;100399.27;109410;1252;60481;-62
2023/09/09 09:19:16;;;;;;;11.60;3.60;;;;;;;35.04;29.33;100400.91;109520;1252;73220;-62
2023/09/09 09:22:03;;;;;;;10.40;4.20;;;;;;;35.06;28.87;100397.81;109460;1252;67593;-62
2023/09/09 09:24:50;;;;;;;10.10;3.50;;;;;;;35.01;29.14;100392.89;109421;1252;72592;-62
2023/09/09 09:27:39;;;;;;;8.80;4.10;;;;;;;34.98;29.50;100393.88;109520;1252;58134;-61
2023/09/09 09:30:26;;;;;;;10.30;4.00;;;;;;;34.92;29.30;100392.27;109448;1252;60271;-62
2023/09/09 09:33:15;;;;;;;10.70;4.20;;;;;;;35.01;29.45;100392.06;109541;1252;72937;-61
2023/09/09 09:36:01;;;;;;;9.80;3.90;;;;;;;35.44;29.12;100395.52;109401;1253;67829;-62
2023/09/09 09:38:49;;;;;;;9.60;3.70;;;;;;;35.92;28.39;100397.91;109383;1253;71545;-63
2023/09/09 09:41:39;;;;;;;8.40;3.80;;;;;;;36.24;27.92;100398.79;109303;1253;58239;-63
2023/09/09 09:44:25;;;;;;;10.30;4.30;;;;;;;36.14;27.85;100397.66;109426;1252;60161;-64
2023/09/09 09:47:11;;;;;;;11.00;7.30;;;;;;;35.92;27.74;100390.38;109537;1252;72789;-63
2023/09/09 09:49:58;;;;;;;9.60;4.70;;;;;;;35.68;28.49;100391.13;109430;1252;66573;-63
2023/09/09 09:52:56;;;;;;;10.10;4.10;;;;;;;35.47;28.18;100382.52;109485;1252;72458;-64
2023/09/09 09:55:44;;;;;;;12.00;4.80;;;;;;;35.44;28.04;100384.79;109407;1252;57915;-61
2023/09/09 09:58:36;;;;;;;8.40;4.00;;;;;;;35.34;28.41;100386.29;109523;1252;60151;-61
2023/09/09 10:01:22;;;;;;;9.50;4.30;;;;;;;35.50;28.06;100380.91;109435;1252;73499;-61
2023/09/09 10:04:11;;;;;;;8.20;4.30;;;;;;;35.90;27.88;100385.83;109566;1252;67578;-61
2023/09/09 10:07:00;;;;;;;9.90;4.40;;;;;;;36.64;27.00;100383.88;109413;1252;72479;-61
2023/09/09 10:10:04;;;;;;;10.10;4.30;;;;;;;37.25;26.18;100379.14;109383;1253;57611;-62
2023/09/09 10:13:18;;;;;;;9.80;3.80;;;;;;;37.27;26.30;100381.35;109502;1252;60103;-60
2023/09/09 10:16:06;;;;;;;8.50;3.50;;;;;;;37.58;26.37;100384.02;109543;1252;71351;-61
2023/09/09 10:18:54;;;;;;;10.20;4.00;;;;;;;37.63;25.10;100375.98;109394;1253;68034;-62
2023/09/09 10:21:42;;;;;;;10.00;3.80;;;;;;;37.61;25.33;100381.16;109392;1253;73455;-61
2023/09/09 10:24:29;;;;;;;9.50;4.20;;;;;;;37.61;25.03;100379.98;109523;1252;57390;-66
2023/09/09 10:27:17;;;;;;;9.80;3.70;;;;;;;37.47;25.30;100373.20;109332;1252;60242;-62
2023/09/09 10:30:07;;;;;;;9.00;4.00;;;;;;;37.23;25.37;100375.17;109523;1252;72891;-62
2023/09/09 10:33:00;;;;;;;8.80;3.90;;;;;;;36.74;26.51;100369.63;109315;1252;66303;-61
2023/09/09 10:35:50;;;;;;;9.20;4.10;;;;;;;36.27;26.72;100371.75;109508;1252;71238;-62
2023/09/09 10:38:38;;;;;;;13.60;4.00;;;;;;;36.03;27.03;100372.95;109290;1252;57291;-62
2023/09/09 10:41:24;;;;;;;8.40;4.30;;;;;;;35.75;27.12;100371.79;109284;1252;61163;-62
2023/09/09 10:44:10;;;;;;;8.60;4.10;;;;;;;35.66;27.31;100369.92;109479;1252;73120;-63
2023/09/09 10:46:57;;;;;;;8.60;4.20;;;;;;;35.79;27.47;100368.77;109440;1253;67912;-63
2023/09/09 10:49:45;;;;;;;8.40;4.30;;;;;;;35.80;26.81;100369.03;109531;1252;70761;-65
2023/09/09 10:52:33;;;;;;;8.40;4.40;;;;;;;35.61;27.33;100369.15;109421;1253;57692;-62
2023/09/09 10:55:30;;;;;;;10.70;4.30;;;;;;;35.26;27.56;100372.71;109477;1252;61327;-62
2023/09/09 10:58:21;;;;;;;10.00;4.10;;;;;;;35.15;27.99;100372.55;109512;1252;70969;-63
2023/09/09 11:01:09;;;;;;;11.80;4.10;;;;;;;34.87;28.50;100364.89;109353;1252;66192;-64
2023/09/09 11:03:57;;;;;;;11.80;4.50;;;;;;;34.75;28.71;100368.02;109316;1252;70643;-62
2023/09/09 11:07:08;;;;;;;10.30;4.20;;;;;;;34.70;28.73;100365.01;109473;1252;58311;-62
2023/09/09 11:09:54;;;;;;;9.00;4.30;;;;;;;34.57;28.98;100361.38;109479;1252;58708;-64
2023/09/09 11:12:52;;;;;;;8.50;4.40;;;;;;;34.55;28.85;100357.80;109399;1252;71794;-62
2023/09/09 11:15:51;;;;;;;10.10;4.20;;;;;;;34.81;28.63;100355.92;109361;1253;67814;-63
2023/09/09 11:18:38;;;;;;;7.90;3.80;;;;;;;34.87;28.65;100354.56;109424;1253;71399;-66
2023/09/09 11:21:26;;;;;;;7.40;3.80;;;;;;;35.18;28.38;100358.49;109324;1253;57790;-64
2023/09/09 11:24:13;;;;;;;9.50;4.60;;;;;;;35.32;27.83;100353.59;109464;1252;58943;-61
2023/09/09 11:27:00;;;;;;;8.70;4.40;;;;;;;35.49;27.76;100356.13;109501;1252;72995;-62
2023/09/09 11:29:54;;;;;;;8.60;4.40;;;;;;;35.50;27.81;100352.85;109492;1252;69247;-62
2023/09/09 11:32:40;;;;;;;9.10;4.00;;;;;;;35.41;28.40;100349.72;109469;1252;73794;-63
2023/09/09 11:35:27;;;;;;;10.50;4.50;;;;;;;35.32;29.22;100346.27;109553;1252;57766;-61
2023/09/09 11:38:14;;;;;;;8.70;4.20;;;;;;;35.05;29.93;100350.14;109544;1252;60590;-61
2023/09/09 11:41:00;;;;;;;9.60;4.30;;;;;;;34.88;30.65;100351.96;109420;1253;73910;-61
2023/09/09 11:44:03;;;;;;;10.20;4.50;;;;;;;34.73;30.93;100350.70;109428;1252;66694;-61
2023/09/09 11:46:52;;;;;;;11.30;4.60;;;;;;;34.56;31.42;100345.92;109418;1253;72433;-63
2023/09/09 11:49:39;;;;;;;10.70;4.70;;;;;;;34.38;31.51;100344.65;109382;1253;57541;-62
2023/09/09 11:52:25;;;;;;;10.50;4.90;;;;;;;34.24;32.28;100343.59;109490;1252;58917;-64
2023/09/09 11:55:17;;;;;;;9.50;4.50;;;;;;;34.22;32.08;100343.58;109524;1252;72366;-62
2023/09/09 11:58:04;;;;;;;9.90;4.60;;;;;;;34.26;32.00;100342.38;109439;1252;68892;-63
2023/09/09 12:00:58;;;;;;;8.50;4.90;;;;;;;34.16;31.78;100339.30;109371;1253;72512;-63
2023/09/09 12:03:48;;;;;;;12.30;6.00;;;;;;;33.93;32.14;100336.95;109412;1254;58239;-62
2023/09/09 12:06:37;;;;;;;11.20;4.70;;;;;;;33.67;32.76;100340.52;109551;1252;59768;-64
2023/09/09 12:09:24;;;;;;;11.40;5.40;;;;;;;33.45;33.21;100341.33;109424;1253;74162;-62
2023/09/09 12:12:10;;;;;;;9.40;5.20;;;;;;;33.14;33.72;100344.48;109379;1253;67790;-62
2023/09/09 12:14:59;;;;;;;10.90;4.70;;;;;;;32.85;33.95;100343.14;109475;1252;73542;-62
2023/09/09 12:17:45;;;;;;;9.20;5.00;;;;;;;32.60;34.89;100341.86;109434;1253;57845;-60
2023/09/09 12:20:31;;;;;;;10.60;4.80;;;;;;;32.25;35.62;100337.02;109523;1252;60124;-62
2023/09/09 12:23:33;;;;;;;11.60;5.40;;;;;;;31.93;36.18;100331.14;109498;1252;73143;-61
2023/09/09 12:26:19;;;;;;;8.60;5.20;;;;;;;31.59;36.20;100330.54;109546;1252;66405;-61
2023/09/09 12:29:11;;;;;;;11.10;5.40;;;;;;;31.25;36.48;100330.73;109454;1252;72416;-62
2023/09/09 12:31:58;;;;;;;9.30;5.30;;;;;;;31.05;37.32;100326.98;109526;1252;57266;-62
2023/09/09 12:34:45;;;;;;;11.90;6.50;;;;;;;30.89;37.90;100332.96;109446;1253;60036;-59
2023/09/09 12:37:31;;;;;;;12.50;6.40;;;;;;;30.73;38.16;100331.41;109507;1252;71820;-61
2023/09/09 12:40:18;;;;;;;10.30;5.40;;;;;;;30.58;38.51;100334.66;109491;1252;67588;-61
2023/09/09 12:43:10;;;;;;;13.00;6.10;;;;;;;30.48;38.85;100330.23;109433;1253;71258;-61
2023/09/09 12:46:08;;;;;;;12.20;5.60;;;;;;;30.39;39.49;100325.76;109439;1252;58038;-64